Spring Hill, KS

7:28 PM CDT on August 29, 2015 (GMT -0500)
The Meadows | | Change Station
CLOSE
Current Station
Personal Weather Station
Location: Spring Hill, KS
Elevation: 1079 ft
Nearby Weather Stations

Elev 1079 ft 38.74 °N, 94.84 °W | Updated 8 seconds ago

Overcast
Overcast
75.0 °F
Feels Like 74 °F
N
0.0
Wind Variable Wind from SSW
Gusts 0.0 mph

Today
High -- | Low -- °F
--% Chance of Precip.
Yesterday
High -- | Low -- °F
Precip. -- in
6:45 AM 7:54 PM
Full, 100% visible
Pressure 29.99 in
Visibility 10.0 miles
Clouds Overcast 4100 ft
Heat Index 74 °F
Dew Point 72 °F
Humidity 89%
Rainfall 0.04 in
Snow Depth Not available.
UV 0.0 out of 12
Pollen 8.40 out of 12
Air Quality Not available.
Flu Activity Not available.
METAR KIXD 292353Z 34010KT 10SM OVC041 23/20 A3001 RMK AO2 SLP154 T02330200 10250 20228 57000
Pressure 29.99 in
Visibility 10.0 miles
Clouds Overcast 4100 ft
Heat Index 74 °F
Dew Point 72 °F
Humidity 89%
Rainfall 0.04 in
Snow Depth Not available.
UV 0.0 out of 12
Pollen 8.40 out of 12
Air Quality Not available.
Flu Activity Not available.
METAR KIXD 292353Z 34010KT 10SM OVC041 23/20 A3001 RMK AO2 SLP154 T02330200 10250 20228 57000

10-Day Weather Forecast

×

Almanac

Astronomy

Aug. 29, 2015 Rise Set
Actual Time
Civil Twilight
Nautical Twilight
Astronomical Twilight
Moon
Length of Visible Light
Length of Day
Tomorrow will be .
, % of the Moon is Illuminated

Today's Extremes

State Highs State Lows

Community

WunderPhotos

Upload Photos

1,850,794 photos uploaded!

WunderBlogs® & News

Nearby

Air Quality

  Air Quality AQ Index Pollutant
Not available.

Snow Depth

Station Depth Elevation

Earthquake Activity

City Distance Mag. Time & Date
Minimum magnitude displayed is 2.5.

Coastal Water Temperatures

Place Temperature

Stations

Nearby Weather Stations

Station Location Temp. Windchill Dew Point Humidity Wind Precip. Elev Updated Type